Aviation Digital Data Service (ADDS)

Output produced by METARs form (0751 UTC 20 January 2017)
found at http://aviationweather.gov/adds/metars/
 
KSLK 200531Z 2006/2106 00000KT 5SM BR VCSH SCT008 OVC015 
     TEMPO 2006/2009 1 1/2SM -SN BR BKN008 
     FM200900 00000KT 2SM BR VCSH OVC006 
     FM201300 VRB03KT P6SM BKN012 OVC020 
     FM201600 15006KT P6SM SCT020 OVC025 
     FM210300 VRB02KT 5SM BR BKN010 OVC020